createdAt,value
2022-10-28T00:00:08.253Z,13.98
2022-10-28T00:02:36.910Z,13.95
2022-10-28T00:05:07.555Z,13.95
2022-10-28T00:07:35.694Z,13.99
2022-10-28T00:10:05.875Z,14.06
2022-10-28T00:12:37.710Z,14.02
2022-10-28T00:15:08.137Z,14.05
2022-10-28T00:17:37.151Z,14.10
2022-10-28T00:20:09.734Z,14.12
2022-10-28T00:22:42.714Z,14.14
2022-10-28T00:25:15.269Z,14.16
2022-10-28T00:27:48.621Z,14.12
2022-10-28T00:30:18.792Z,14.10
2022-10-28T00:32:49.031Z,14.10
2022-10-28T00:35:17.423Z,14.06
2022-10-28T00:37:45.484Z,14.03
2022-10-28T00:40:14.006Z,14.03
2022-10-28T00:42:46.864Z,14.00
2022-10-28T00:45:18.565Z,13.96
2022-10-28T00:47:54.368Z,13.92
2022-10-28T00:50:46.679Z,13.88
2022-10-28T00:53:18.026Z,13.82
2022-10-28T00:55:47.875Z,13.78
2022-10-28T00:58:16.611Z,13.73
2022-10-28T01:00:47.593Z,13.70
2022-10-28T01:03:17.413Z,13.68
2022-10-28T01:05:55.351Z,13.65
2022-10-28T01:08:24.965Z,13.61
2022-10-28T01:11:06.113Z,13.54
2022-10-28T01:13:46.161Z,13.52
2022-10-28T01:16:24.731Z,13.47
2022-10-28T01:19:07.646Z,13.42
2022-10-28T01:22:17.279Z,13.37
2022-10-28T01:24:58.202Z,13.32
2022-10-28T01:28:10.187Z,13.28
2022-10-28T01:31:01.771Z,13.28
2022-10-28T01:33:33.915Z,13.24
2022-10-28T01:36:04.517Z,13.24
2022-10-28T01:38:37.160Z,13.19
2022-10-28T01:41:10.778Z,13.16
2022-10-28T01:43:43.800Z,13.13
2022-10-28T01:46:16.715Z,13.06
2022-10-28T01:48:51.387Z,13.04
2022-10-28T01:51:24.585Z,12.97
2022-10-28T01:53:54.907Z,12.91
2022-10-28T01:56:50.333Z,12.90
2022-10-28T01:59:21.262Z,12.83
2022-10-28T02:01:51.032Z,12.77
2022-10-28T02:04:22.952Z,12.73
2022-10-28T02:06:54.774Z,12.70
2022-10-28T02:09:34.026Z,12.66
2022-10-28T02:12:15.770Z,12.65
2022-10-28T02:15:18.250Z,12.66
2022-10-28T02:18:06.465Z,12.68
2022-10-28T02:20:43.119Z,12.69
2022-10-28T02:23:20.855Z,12.63
2022-10-28T02:25:54.948Z,12.68
2022-10-28T02:28:25.927Z,12.68
2022-10-28T02:31:00.334Z,12.66
2022-10-28T02:33:32.464Z,12.63
2022-10-28T02:36:05.467Z,12.56
2022-10-28T02:38:38.807Z,12.48
2022-10-28T02:41:11.731Z,12.49
2022-10-28T02:43:44.226Z,12.44
2022-10-28T02:46:14.587Z,12.41
2022-10-28T02:48:47.708Z,12.38
2022-10-28T02:51:19.514Z,12.38
2022-10-28T02:53:58.801Z,12.39
2022-10-28T02:56:28.356Z,12.36
2022-10-28T02:58:58.030Z,12.36
2022-10-28T03:01:26.069Z,12.31
2022-10-28T03:03:56.643Z,12.25
2022-10-28T03:08:56.249Z,12.24
2022-10-28T03:11:25.791Z,12.29
2022-10-28T03:13:54.104Z,12.29
2022-10-28T03:16:22.435Z,12.26
2022-10-28T03:18:52.392Z,12.24
2022-10-28T03:21:21.231Z,12.22
2022-10-28T03:23:52.685Z,12.21
2022-10-28T03:26:21.367Z,12.20
2022-10-28T03:28:51.127Z,12.20
2022-10-28T03:31:19.102Z,12.22
2022-10-28T03:33:50.639Z,12.22
2022-10-28T03:36:19.119Z,12.25
2022-10-28T03:38:48.752Z,12.24
2022-10-28T03:41:19.568Z,12.26
2022-10-28T03:43:50.987Z,12.31
2022-10-28T03:46:19.254Z,12.32
2022-10-28T03:48:49.199Z,12.32
2022-10-28T03:51:17.754Z,12.35
2022-10-28T03:53:45.778Z,12.36
2022-10-28T03:56:14.473Z,12.41
2022-10-28T03:58:47.130Z,12.38
2022-10-28T04:01:17.240Z,12.36
2022-10-28T04:03:45.652Z,12.33
2022-10-28T04:06:14.526Z,12.28
2022-10-28T04:08:43.135Z,12.21
2022-10-28T04:11:11.783Z,12.20
2022-10-28T04:13:42.356Z,12.15
2022-10-28T04:16:12.283Z,12.18
2022-10-28T04:18:48.523Z,12.20
2022-10-28T04:21:18.113Z,12.14
2022-10-28T04:23:48.070Z,12.17
2022-10-28T04:26:19.009Z,12.15
2022-10-28T04:28:50.781Z,12.08
2022-10-28T04:31:20.556Z,12.03
2022-10-28T04:33:49.222Z,12.00
2022-10-28T04:36:18.366Z,11.95
2022-10-28T04:38:49.994Z,11.94
2022-10-28T04:41:19.324Z,11.87
2022-10-28T04:43:47.520Z,11.84
2022-10-28T04:46:17.050Z,11.80
2022-10-28T04:48:48.071Z,11.80
2022-10-28T04:51:16.820Z,11.79
2022-10-28T04:53:47.878Z,11.77
2022-10-28T04:56:23.705Z,11.82
2022-10-28T04:58:52.109Z,11.83
2022-10-28T05:01:21.575Z,11.86
2022-10-28T05:03:51.381Z,11.84
2022-10-28T05:06:29.379Z,11.89
2022-10-28T05:08:59.365Z,11.94
2022-10-28T05:11:30.771Z,11.95
2022-10-28T05:14:01.369Z,11.93
2022-10-28T05:16:29.300Z,11.94
2022-10-28T05:19:00.145Z,11.94
2022-10-28T05:21:28.825Z,11.97
2022-10-28T05:23:56.834Z,11.97
2022-10-28T05:26:25.235Z,12.01
2022-10-28T05:28:53.811Z,12.04
2022-10-28T05:31:23.404Z,12.04
2022-10-28T05:33:51.432Z,12.04
2022-10-28T05:36:20.739Z,12.01
2022-10-28T05:38:52.705Z,12.01
2022-10-28T05:41:23.322Z,12.01
2022-10-28T05:43:53.326Z,11.95
2022-10-28T05:46:22.289Z,11.93
2022-10-28T05:48:50.945Z,11.89
2022-10-28T05:51:21.303Z,11.84
2022-10-28T05:53:51.370Z,11.86
2022-10-28T05:56:22.721Z,11.87
2022-10-28T05:58:54.675Z,11.87
2022-10-28T06:01:25.003Z,11.87
2022-10-28T06:03:53.461Z,11.89
2022-10-28T06:06:23.163Z,11.94
2022-10-28T06:08:51.383Z,11.94
2022-10-28T06:11:18.146Z,11.98
2022-10-28T06:13:47.429Z,12.03
2022-10-28T06:16:20.179Z,12.11
2022-10-28T06:18:52.195Z,12.14
2022-10-28T06:21:21.741Z,12.17
2022-10-28T06:23:50.621Z,12.21
2022-10-28T06:26:18.999Z,12.24
2022-10-28T06:28:47.955Z,12.26
2022-10-28T06:31:16.919Z,12.31
2022-10-28T06:33:46.164Z,12.32
2022-10-28T06:36:20.318Z,12.39
2022-10-28T06:38:54.432Z,12.44
2022-10-28T06:41:23.499Z,12.49
2022-10-28T06:43:53.026Z,12.55
2022-10-28T06:46:21.054Z,12.65
2022-10-28T06:48:51.329Z,12.75
2022-10-28T06:51:19.335Z,12.87
2022-10-28T06:53:52.178Z,13.00
2022-10-28T06:56:23.132Z,13.10
2022-10-28T06:58:53.286Z,13.17
2022-10-28T07:01:24.592Z,13.30
2022-10-28T07:03:54.049Z,13.44
2022-10-28T07:06:23.346Z,13.61
2022-10-28T07:08:53.063Z,13.79
2022-10-28T07:11:23.306Z,13.98
2022-10-28T07:13:53.172Z,14.14
2022-10-28T07:16:21.950Z,14.31
2022-10-28T07:18:50.500Z,14.48
2022-10-28T07:21:21.119Z,14.67
2022-10-28T07:23:52.093Z,14.79
2022-10-28T07:26:20.585Z,14.89
2022-10-28T07:28:51.805Z,15.03
2022-10-28T07:31:22.238Z,15.13
2022-10-28T07:33:54.824Z,15.10
2022-10-28T07:36:22.930Z,15.10
2022-10-28T07:38:59.688Z,15.02
2022-10-28T07:41:28.741Z,15.00
2022-10-28T07:44:02.177Z,14.99
2022-10-28T07:46:31.855Z,14.99
2022-10-28T07:49:00.901Z,14.98
2022-10-28T07:51:30.662Z,15.02
2022-10-28T07:54:02.723Z,14.99
2022-10-28T07:56:38.153Z,15.02
2022-10-28T07:59:07.086Z,15.30
2022-10-28T08:01:36.325Z,15.65
2022-10-28T08:04:05.135Z,15.97
2022-10-28T08:06:37.639Z,16.11
2022-10-28T08:09:08.265Z,16.28
2022-10-28T08:11:38.451Z,16.55
2022-10-28T08:14:06.819Z,16.91
2022-10-28T08:16:36.762Z,17.19
2022-10-28T08:19:07.788Z,17.31
2022-10-28T08:21:39.175Z,17.42
2022-10-28T08:24:09.563Z,17.41
2022-10-28T08:26:44.208Z,17.50
2022-10-28T08:29:12.877Z,17.79
2022-10-28T08:31:43.675Z,18.13
2022-10-28T08:34:13.765Z,18.44
2022-10-28T08:36:42.903Z,18.62
2022-10-28T08:39:13.072Z,18.93
2022-10-28T08:41:47.245Z,18.96
2022-10-28T08:44:31.855Z,18.96
2022-10-28T08:47:14.017Z,19.20
2022-10-28T08:49:49.694Z,19.33
2022-10-28T08:52:30.174Z,19.14
2022-10-28T08:55:06.892Z,19.14
2022-10-28T08:57:40.714Z,18.99
2022-10-28T09:00:17.776Z,18.76
2022-10-28T09:02:55.065Z,18.86
2022-10-28T09:05:27.816Z,19.13
2022-10-28T09:07:58.530Z,19.51
2022-10-28T09:11:00.666Z,19.81
2022-10-28T09:13:38.497Z,20.20
2022-10-28T09:16:16.147Z,20.47
2022-10-28T09:18:56.752Z,20.74
2022-10-28T09:21:38.302Z,20.77
2022-10-28T09:24:16.654Z,20.92
2022-10-28T09:26:56.562Z,21.12
2022-10-28T09:29:43.264Z,21.26
2022-10-28T09:32:19.008Z,21.40
2022-10-28T09:34:52.848Z,21.43
2022-10-28T09:37:24.320Z,21.26
2022-10-28T09:39:59.438Z,21.06
2022-10-28T09:42:33.273Z,21.03
2022-10-28T09:45:05.872Z,21.26
2022-10-28T09:47:40.718Z,21.54
2022-10-28T09:50:19.246Z,21.79
2022-10-28T09:53:00.204Z,21.86
2022-10-28T09:55:29.083Z,21.97
2022-10-28T09:57:59.148Z,21.93
2022-10-28T10:00:30.811Z,21.90
2022-10-28T10:02:59.887Z,21.97
2022-10-28T10:05:28.389Z,22.04
2022-10-28T10:07:58.758Z,22.02
2022-10-28T10:10:29.609Z,22.17
2022-10-28T10:13:05.205Z,22.31
2022-10-28T10:15:37.692Z,22.34
2022-10-28T10:18:07.801Z,22.31
2022-10-28T10:20:49.233Z,22.34
2022-10-28T10:23:27.825Z,22.29
2022-10-28T10:25:59.742Z,22.31
2022-10-28T10:28:30.130Z,22.28
2022-10-28T10:30:59.810Z,22.27
2022-10-28T10:33:30.564Z,22.25
2022-10-28T10:36:02.452Z,22.27
2022-10-28T10:38:35.621Z,22.32
2022-10-28T10:41:05.060Z,22.38
2022-10-28T10:43:35.613Z,22.53
2022-10-28T10:46:06.981Z,22.66
2022-10-28T10:48:39.306Z,22.61
2022-10-28T10:51:23.239Z,22.65
2022-10-28T10:53:54.585Z,22.66
2022-10-28T10:56:29.704Z,22.72
2022-10-28T10:59:02.587Z,22.75
2022-10-28T11:01:39.571Z,22.80
2022-10-28T11:04:09.092Z,22.83
2022-10-28T11:06:40.683Z,22.83
2022-10-28T11:09:20.019Z,22.99
2022-10-28T11:11:48.746Z,23.07
2022-10-28T11:14:26.742Z,23.09
2022-10-28T11:16:58.590Z,22.99
2022-10-28T11:19:32.830Z,23.09
2022-10-28T11:22:11.125Z,23.26
2022-10-28T11:25:12.589Z,23.22
2022-10-28T11:27:56.546Z,23.16
2022-10-28T11:30:45.965Z,23.12
2022-10-28T11:33:34.765Z,23.12
2022-10-28T11:36:17.115Z,23.02
2022-10-28T11:39:05.349Z,22.85
2022-10-28T11:41:41.911Z,22.69
2022-10-28T11:44:19.930Z,22.68
2022-10-28T11:46:56.072Z,22.76
2022-10-28T11:50:02.953Z,22.77
2022-10-28T11:52:45.320Z,22.86
2022-10-28T11:55:23.902Z,22.97
2022-10-28T11:58:01.851Z,23.03
2022-10-28T12:00:46.726Z,22.97
2022-10-28T12:03:54.802Z,22.97
2022-10-28T12:06:33.522Z,22.92
2022-10-28T12:09:14.843Z,22.85
2022-10-28T12:11:52.363Z,22.82
2022-10-28T12:14:25.318Z,22.82
2022-10-28T12:16:58.513Z,22.80
2022-10-28T12:19:31.352Z,22.89
2022-10-28T12:22:04.479Z,22.97
2022-10-28T12:24:36.012Z,22.99
2022-10-28T12:27:15.369Z,22.97
2022-10-28T12:29:50.175Z,22.86
2022-10-28T12:32:21.499Z,22.76
2022-10-28T12:34:55.940Z,22.72
2022-10-28T12:37:30.339Z,22.69
2022-10-28T12:40:03.231Z,22.66
2022-10-28T12:42:35.660Z,22.71
2022-10-28T12:45:08.145Z,22.66
2022-10-28T12:47:43.199Z,22.59
2022-10-28T12:50:22.924Z,22.61
2022-10-28T12:52:56.200Z,22.56
2022-10-28T12:55:32.370Z,22.58
2022-10-28T12:58:06.380Z,22.55
2022-10-28T13:00:42.013Z,22.58
2022-10-28T13:03:13.869Z,22.53
2022-10-28T13:05:47.662Z,22.51
2022-10-28T13:08:53.064Z,22.48
2022-10-28T13:11:54.286Z,22.46
2022-10-28T13:17:40.521Z,22.37
2022-10-28T13:20:16.421Z,22.34
2022-10-28T13:23:15.477Z,22.31
2022-10-28T13:26:07.153Z,22.29
2022-10-28T13:28:38.068Z,22.27
2022-10-28T13:31:09.371Z,22.25
2022-10-28T13:33:41.684Z,22.27
2022-10-28T13:36:19.016Z,22.24
2022-10-28T13:38:54.532Z,22.24
2022-10-28T13:41:46.336Z,22.21
2022-10-28T13:44:28.510Z,22.20
2022-10-28T13:47:27.784Z,22.22
2022-10-28T13:50:22.379Z,22.18
2022-10-28T13:53:28.594Z,22.20
2022-10-28T13:55:59.714Z,22.18
2022-10-28T13:58:28.678Z,22.17
2022-10-28T14:00:57.051Z,22.17
2022-10-28T14:03:26.936Z,22.18
2022-10-28T14:06:00.805Z,22.14
2022-10-28T14:08:31.332Z,22.14
2022-10-28T14:11:04.346Z,22.16
2022-10-28T14:13:34.600Z,22.16
2022-10-28T14:16:20.252Z,22.14
2022-10-28T14:18:57.035Z,22.14
2022-10-28T14:21:25.763Z,22.13
2022-10-28T14:24:33.053Z,22.13
2022-10-28T14:27:31.222Z,22.07
2022-10-28T14:30:27.228Z,22.07
2022-10-28T14:33:23.940Z,22.02
2022-10-28T14:36:00.516Z,22.00
2022-10-28T14:38:48.886Z,21.97
2022-10-28T14:41:51.163Z,21.94
2022-10-28T14:44:34.274Z,21.86
2022-10-28T14:47:12.014Z,21.80
2022-10-28T14:49:43.911Z,21.79
2022-10-28T14:52:17.490Z,21.73
2022-10-28T14:54:49.292Z,21.63
2022-10-28T14:57:23.227Z,21.60
2022-10-28T14:59:52.975Z,21.53
2022-10-28T15:02:24.583Z,21.46
2022-10-28T15:05:07.542Z,21.38
2022-10-28T15:07:38.279Z,21.29
2022-10-28T15:10:16.610Z,21.23
2022-10-28T15:12:46.016Z,21.15
2022-10-28T15:15:20.726Z,21.12
2022-10-28T15:17:53.493Z,21.11
2022-10-28T15:20:24.108Z,21.01
2022-10-28T15:22:53.457Z,20.95
2022-10-28T15:25:24.667Z,20.90
2022-10-28T15:27:53.726Z,20.81
2022-10-28T15:30:25.889Z,20.74
2022-10-28T15:32:58.700Z,20.67
2022-10-28T15:35:41.101Z,20.64
2022-10-28T15:38:38.632Z,20.53
2022-10-28T15:41:46.634Z,20.51
2022-10-28T15:44:43.262Z,20.43
2022-10-28T15:47:31.020Z,20.36
2022-10-28T15:50:22.668Z,20.24
2022-10-28T15:52:53.585Z,20.17
2022-10-28T15:55:47.657Z,20.08
2022-10-28T15:58:37.306Z,20.01
2022-10-28T16:01:10.825Z,19.92
2022-10-28T16:03:46.187Z,19.86
2022-10-28T16:06:28.564Z,19.78
2022-10-28T16:09:01.122Z,19.74
2022-10-28T16:11:31.328Z,19.62
2022-10-28T16:14:02.147Z,19.59
2022-10-28T16:16:32.707Z,19.53
2022-10-28T16:19:07.227Z,19.48
2022-10-28T16:21:37.317Z,19.45
2022-10-28T16:24:08.870Z,19.36
2022-10-28T16:26:37.700Z,19.30
2022-10-28T16:29:06.897Z,19.23
2022-10-28T16:31:37.373Z,19.17
2022-10-28T16:34:12.027Z,19.08
2022-10-28T16:36:40.684Z,18.97
2022-10-28T16:39:13.399Z,18.92
2022-10-28T16:41:44.588Z,18.87
2022-10-28T16:44:17.440Z,18.82
2022-10-28T16:46:45.756Z,18.73
2022-10-28T16:49:15.082Z,18.68
2022-10-28T16:51:45.137Z,18.64
2022-10-28T16:54:13.416Z,18.61
2022-10-28T16:56:42.492Z,18.53
2022-10-28T16:59:11.144Z,18.49
2022-10-28T17:01:39.649Z,18.45
2022-10-28T17:04:12.135Z,18.38
2022-10-28T17:06:41.734Z,18.34
2022-10-28T17:09:11.899Z,18.35
2022-10-28T17:11:40.656Z,18.31
2022-10-28T17:14:12.395Z,18.25
2022-10-28T17:16:43.514Z,18.22
2022-10-28T17:19:12.038Z,18.18
2022-10-28T17:21:43.005Z,18.13
2022-10-28T17:24:13.140Z,18.06
2022-10-28T17:26:41.157Z,18.00
2022-10-28T17:29:10.642Z,17.93
2022-10-28T17:31:38.859Z,17.90
2022-10-28T17:34:08.919Z,17.84
2022-10-28T17:36:38.795Z,17.80
2022-10-28T17:39:16.441Z,17.80
2022-10-28T17:41:53.243Z,17.79
2022-10-28T17:44:22.097Z,17.74
2022-10-28T17:46:58.214Z,17.73
2022-10-28T17:49:26.678Z,17.69
2022-10-28T17:52:04.453Z,17.66
2022-10-28T17:54:36.953Z,17.65
2022-10-28T17:57:09.109Z,17.67
2022-10-28T17:59:40.783Z,17.62
2022-10-28T18:02:12.660Z,17.65
2022-10-28T18:04:41.237Z,17.65
2022-10-28T18:07:10.640Z,17.65
2022-10-28T18:09:42.850Z,17.63
2022-10-28T18:12:12.794Z,17.62
2022-10-28T18:14:42.342Z,17.65
2022-10-28T18:17:13.842Z,17.62
2022-10-28T18:19:42.327Z,17.60
2022-10-28T18:22:12.838Z,17.59
2022-10-28T18:24:43.342Z,17.55
2022-10-28T18:27:11.907Z,17.49
2022-10-28T18:29:40.121Z,17.50
2022-10-28T18:32:12.074Z,17.43
2022-10-28T18:34:42.218Z,17.43
2022-10-28T18:37:11.838Z,17.41
2022-10-28T18:39:41.012Z,17.36
2022-10-28T18:42:13.506Z,17.32
2022-10-28T18:44:42.130Z,17.29
2022-10-28T18:47:10.504Z,17.27
2022-10-28T18:49:38.754Z,17.27
2022-10-28T18:52:07.493Z,17.24
2022-10-28T18:54:35.735Z,17.25
2022-10-28T18:57:04.916Z,17.25
2022-10-28T18:59:43.308Z,17.22
2022-10-28T19:02:24.776Z,17.22
2022-10-28T19:04:52.940Z,17.22
2022-10-28T19:07:22.308Z,17.19
2022-10-28T19:09:50.865Z,17.19
2022-10-28T19:12:19.686Z,17.18
2022-10-28T19:14:50.705Z,17.18
2022-10-28T19:17:19.811Z,17.18
2022-10-28T19:19:51.635Z,17.18
2022-10-28T19:22:24.688Z,17.19
2022-10-28T19:24:54.890Z,17.19
2022-10-28T19:27:23.064Z,17.21
2022-10-28T19:30:00.732Z,17.19
2022-10-28T19:32:30.586Z,17.16
2022-10-28T19:35:00.020Z,17.14
2022-10-28T19:37:28.405Z,17.12
2022-10-28T19:39:56.696Z,17.11
2022-10-28T19:42:29.608Z,17.07
2022-10-28T19:45:01.814Z,17.05
2022-10-28T19:47:30.867Z,17.05
2022-10-28T19:49:59.226Z,17.05
2022-10-28T19:52:27.678Z,17.00
2022-10-28T19:55:01.676Z,17.00
2022-10-28T19:57:32.629Z,17.01
2022-10-28T20:00:03.732Z,17.00
2022-10-28T20:02:32.297Z,16.98
2022-10-28T20:05:04.125Z,17.00
2022-10-28T20:07:34.036Z,16.97
2022-10-28T20:10:04.485Z,17.00
2022-10-28T20:12:35.910Z,17.01
2022-10-28T20:15:08.964Z,17.04
2022-10-28T20:17:38.200Z,17.07
2022-10-28T20:20:07.719Z,17.10
2022-10-28T20:22:41.304Z,17.11
2022-10-28T20:25:11.801Z,17.11
2022-10-28T20:27:40.953Z,17.14
2022-10-28T20:30:14.472Z,17.12
2022-10-28T20:32:46.062Z,17.15
2022-10-28T20:35:14.484Z,17.14
2022-10-28T20:37:42.820Z,17.14
2022-10-28T20:40:13.833Z,17.15
2022-10-28T20:42:42.541Z,17.14
2022-10-28T20:45:19.707Z,17.21
2022-10-28T20:47:49.074Z,17.18
2022-10-28T20:50:18.372Z,17.19
2022-10-28T20:55:38.713Z,17.18
2022-10-28T20:58:09.928Z,17.18
2022-10-28T21:00:39.626Z,17.16
2022-10-28T21:03:13.073Z,17.21
2022-10-28T21:05:42.062Z,17.16
2022-10-28T21:08:10.604Z,17.16
2022-10-28T21:10:40.860Z,17.14
2022-10-28T21:13:09.299Z,17.15
2022-10-28T21:15:40.114Z,17.22
2022-10-28T21:18:12.722Z,17.22
2022-10-28T21:20:43.785Z,17.22
2022-10-28T21:23:13.086Z,17.22
2022-10-28T21:25:42.327Z,17.21
2022-10-28T21:28:13.384Z,17.24
2022-10-28T21:30:45.880Z,17.31
2022-10-28T21:33:14.353Z,17.35
2022-10-28T21:35:43.371Z,17.36
2022-10-28T21:38:14.498Z,17.43
2022-10-28T21:40:42.965Z,17.48
2022-10-28T21:43:11.235Z,17.52
2022-10-28T21:45:39.666Z,17.52
2022-10-28T21:48:11.262Z,17.56
2022-10-28T21:50:39.553Z,17.60
2022-10-28T21:53:07.917Z,17.65
2022-10-28T21:55:48.207Z,17.60
2022-10-28T21:58:20.753Z,17.60
2022-10-28T22:00:48.873Z,17.59
2022-10-28T22:03:18.447Z,17.60
2022-10-28T22:05:58.014Z,17.59
2022-10-28T22:08:28.096Z,17.58
2022-10-28T22:11:01.360Z,17.59
2022-10-28T22:13:30.086Z,17.59
2022-10-28T22:16:00.382Z,17.58
2022-10-28T22:18:32.030Z,17.52
2022-10-28T22:21:07.010Z,17.49
2022-10-28T22:23:45.689Z,17.49
2022-10-28T22:26:17.483Z,17.50
2022-10-28T22:28:49.467Z,17.50
2022-10-28T22:31:23.961Z,17.50
2022-10-28T22:34:07.605Z,17.53
2022-10-28T22:36:40.378Z,17.53
2022-10-28T22:39:09.980Z,17.52
2022-10-28T22:41:39.450Z,17.48
2022-10-28T22:44:08.897Z,17.46
2022-10-28T22:46:37.109Z,17.43
2022-10-28T22:49:07.342Z,17.38
2022-10-28T22:51:35.511Z,17.36
2022-10-28T22:54:04.042Z,17.32
2022-10-28T22:56:34.851Z,17.24
2022-10-28T22:59:04.228Z,17.19
2022-10-28T23:01:32.866Z,17.12
2022-10-28T23:04:02.274Z,17.07
2022-10-28T23:06:33.086Z,17.04
2022-10-28T23:09:03.354Z,16.94
2022-10-28T23:11:31.648Z,16.88
2022-10-28T23:14:03.581Z,16.83
2022-10-28T23:16:38.861Z,16.76
2022-10-28T23:19:07.672Z,16.77
2022-10-28T23:21:42.304Z,16.77
2022-10-28T23:24:11.972Z,16.71
2022-10-28T23:26:41.430Z,16.70
2022-10-28T23:29:09.944Z,16.62
2022-10-28T23:31:38.223Z,16.59
2022-10-28T23:34:08.231Z,16.53
2022-10-28T23:36:38.180Z,16.47
2022-10-28T23:39:06.384Z,16.43
2022-10-28T23:41:34.840Z,16.39
2022-10-28T23:44:10.593Z,16.36
2022-10-28T23:46:39.506Z,16.36
2022-10-28T23:49:10.154Z,16.35
2022-10-28T23:51:40.976Z,16.30
2022-10-28T23:54:11.297Z,16.28
2022-10-28T23:56:39.325Z,16.28
2022-10-28T23:59:07.481Z,16.26
